createdAt,value
2022-11-13T00:00:02.487Z,2.23
2022-11-13T00:05:03.332Z,2.08
2022-11-13T00:10:02.903Z,2.1
2022-11-13T00:15:02.944Z,1.97
2022-11-13T00:20:02.635Z,2
2022-11-13T00:25:02.386Z,1.63
2022-11-13T00:30:03.112Z,1.96
2022-11-13T00:35:02.772Z,1.96
2022-11-13T00:40:02.504Z,1.61
2022-11-13T00:45:02.437Z,1.08
2022-11-13T00:50:03.309Z,0.87
2022-11-13T00:55:04.058Z,1.02
2022-11-13T01:00:02.551Z,1.7
2022-11-13T01:05:03.255Z,1.66
2022-11-13T01:10:02.984Z,1.61
2022-11-13T01:15:02.745Z,1.31
2022-11-13T01:20:02.434Z,1.3
2022-11-13T01:25:03.448Z,1.51
2022-11-13T01:30:06.695Z,1.56
2022-11-13T01:35:03.510Z,2.17
2022-11-13T01:40:03.202Z,2.24
2022-11-13T01:45:02.950Z,2.38
2022-11-13T01:50:02.576Z,2.5
2022-11-13T01:55:04.403Z,2.51
2022-11-13T02:00:03.320Z,2.35
2022-11-13T02:05:03.278Z,2.27
2022-11-13T02:10:03.142Z,2.15
2022-11-13T02:15:03.602Z,2.01
2022-11-13T02:20:03.532Z,1.9
2022-11-13T02:25:03.223Z,1.9
2022-11-13T02:30:02.926Z,1.83
2022-11-13T02:35:03.349Z,1.71
2022-11-13T02:40:02.882Z,1.49
2022-11-13T02:45:02.810Z,1.33
2022-11-13T02:50:02.250Z,0.74
2022-11-13T02:55:04.629Z,0.39
2022-11-13T03:00:02.983Z,0.03
2022-11-13T03:05:14.357Z,-0.06
2022-11-13T03:10:03.146Z,-0.03
2022-11-13T03:15:03.030Z,-0.17
2022-11-13T03:20:02.664Z,0.09
2022-11-13T03:25:11.359Z,0.47
2022-11-13T03:30:03.141Z,0.28
2022-11-13T03:35:02.866Z,0.11
2022-11-13T03:40:02.748Z,0.08
2022-11-13T03:45:03.239Z,0.21
2022-11-13T03:50:02.632Z,0.24
2022-11-13T03:55:04.396Z,-0.22
2022-11-13T04:00:03.005Z,-0.35
2022-11-13T04:10:02.590Z,-0.25
2022-11-13T04:15:03.517Z,-0.15
2022-11-13T04:20:02.983Z,-0.07
2022-11-13T04:25:02.680Z,-0.19
2022-11-13T04:30:03.231Z,-0.19
2022-11-13T04:35:02.799Z,-0.22
2022-11-13T04:45:03.167Z,-0.35
2022-11-13T04:50:02.731Z,-0.31
2022-11-13T05:00:03.509Z,-0.28
2022-11-13T05:05:06.695Z,-0.16
2022-11-13T05:10:02.639Z,0.05
2022-11-13T05:15:03.512Z,0.05
2022-11-13T05:20:03.063Z,0.12
2022-11-13T05:25:02.858Z,0.33
2022-11-13T05:30:03.372Z,0.25
2022-11-13T05:35:02.768Z,0.19
2022-11-13T05:40:02.631Z,0.32
2022-11-13T05:45:02.506Z,0.39
2022-11-13T05:50:03.185Z,0.37
2022-11-13T05:55:04.280Z,0.28
2022-11-13T06:00:03.157Z,0.08
2022-11-13T06:05:02.816Z,-0.05
2022-11-13T06:15:03.500Z,-0.09
2022-11-13T06:25:03.491Z,-0.3
2022-11-13T06:30:03.269Z,-0.26
2022-11-13T06:35:02.924Z,-0.11
2022-11-13T06:40:03.114Z,0.25
2022-11-13T06:45:02.916Z,0.5
2022-11-13T06:50:02.922Z,0.55
2022-11-13T06:55:03.810Z,0.74
2022-11-13T07:00:03.433Z,0.94
2022-11-13T07:05:03.195Z,1.21
2022-11-13T07:10:02.908Z,1.28
2022-11-13T07:15:02.499Z,1.13
2022-11-13T07:20:03.274Z,1.38
2022-11-13T07:25:03.246Z,1.71
2022-11-13T07:30:04.339Z,2.1
2022-11-13T07:35:03.190Z,2.33
2022-11-13T07:40:02.746Z,2.51
2022-11-13T07:45:03.590Z,2.73
2022-11-13T07:50:11.506Z,2.94
2022-11-13T07:55:04.460Z,3.13
2022-11-13T08:00:02.996Z,3.22
2022-11-13T08:05:02.585Z,3.41
2022-11-13T08:10:03.391Z,3.57
2022-11-13T08:15:03.410Z,3.91
2022-11-13T08:20:03.163Z,4.03
2022-11-13T08:25:02.819Z,4.18
2022-11-13T08:35:03.540Z,4.61
2022-11-13T08:40:03.128Z,4.84
2022-11-13T08:45:02.864Z,4.88
2022-11-13T08:50:03.630Z,5.19
2022-11-13T08:55:04.683Z,5.3
2022-11-13T09:00:03.354Z,5.54
2022-11-13T09:05:02.953Z,5.78
2022-11-13T09:10:02.912Z,5.93
2022-11-13T09:15:02.787Z,6.19
2022-11-13T09:20:14.092Z,6.28
2022-11-13T09:25:02.922Z,6.33
2022-11-13T09:30:02.777Z,6.34
2022-11-13T09:35:03.569Z,6.36
2022-11-13T09:45:03.535Z,6.44
2022-11-13T09:50:03.406Z,6.53
2022-11-13T09:55:04.026Z,6.7
2022-11-13T10:00:02.918Z,6.7
2022-11-13T10:05:03.458Z,6.68
2022-11-13T10:10:02.894Z,6.77
2022-11-13T10:15:03.580Z,6.84
2022-11-13T10:20:02.722Z,6.9
2022-11-13T10:25:03.592Z,6.88
2022-11-13T10:30:10.572Z,6.88
2022-11-13T10:35:03.209Z,6.92
2022-11-13T10:45:04.384Z,7.02
2022-11-13T10:50:03.053Z,6.93
2022-11-13T10:55:03.979Z,6.92
2022-11-13T11:00:03.470Z,6.96
2022-11-13T11:05:03.108Z,6.96
2022-11-13T11:10:02.679Z,7.07
2022-11-13T11:15:02.452Z,7.18
2022-11-13T11:20:03.210Z,7.21
2022-11-13T11:25:02.912Z,7.23
2022-11-13T11:35:02.540Z,7.26
2022-11-13T11:40:03.264Z,7.33
2022-11-13T11:45:03.036Z,7.48
2022-11-13T11:50:02.733Z,7.46
2022-11-13T11:55:04.029Z,7.51
2022-11-13T12:00:03.524Z,7.53
2022-11-13T12:05:03.566Z,7.78
2022-11-13T12:10:02.630Z,8.51
2022-11-13T12:15:03.437Z,8.5
2022-11-13T12:20:02.777Z,9.74
2022-11-13T12:25:03.486Z,9.96
2022-11-13T12:30:03.200Z,9.9
2022-11-13T12:35:03.323Z,10.04
2022-11-13T12:40:03.163Z,10.08
2022-11-13T12:45:02.926Z,10.26
2022-11-13T12:50:02.587Z,10.24
2022-11-13T12:55:04.641Z,10.45
2022-11-13T13:00:02.992Z,10.58
2022-11-13T13:05:02.784Z,10.84
2022-11-13T13:10:03.308Z,11.23
2022-11-13T13:15:03.622Z,11.03
2022-11-13T13:20:03.311Z,11.06
2022-11-13T13:25:02.830Z,11.45
2022-11-13T13:30:02.576Z,11
2022-11-13T13:40:03.254Z,11.49
2022-11-13T13:45:03.014Z,11.23
2022-11-13T13:50:02.698Z,11.28
2022-11-13T13:55:04.251Z,11.22
2022-11-13T14:00:03.269Z,10.56
2022-11-13T14:05:02.922Z,10.66
2022-11-13T14:10:03.005Z,10.79
2022-11-13T14:15:02.606Z,10.49
2022-11-13T14:20:03.425Z,10.51
2022-11-13T14:25:03.392Z,10.34
2022-11-13T14:30:03.000Z,10.05
2022-11-13T14:35:02.661Z,10.05
2022-11-13T14:40:02.683Z,10.03
2022-11-13T14:45:02.667Z,9.81
2022-11-13T14:50:03.318Z,9.51
2022-11-13T14:55:16.040Z,8.91
2022-11-13T15:00:03.372Z,8.63
2022-11-13T15:05:02.862Z,8.35
2022-11-13T15:10:02.648Z,7.89
2022-11-13T15:15:03.214Z,7.79
2022-11-13T15:20:09.844Z,7.7
2022-11-13T15:30:02.929Z,7.3
2022-11-13T15:35:02.609Z,7.23
2022-11-13T15:40:03.841Z,6.87
2022-11-13T15:45:02.968Z,6.7
2022-11-13T15:50:16.184Z,6.46
2022-11-13T15:55:04.663Z,6.39
2022-11-13T16:00:03.001Z,6.29
2022-11-13T16:05:03.249Z,6.34
2022-11-13T16:10:02.868Z,6.28
2022-11-13T16:15:02.766Z,6.16
2022-11-13T16:20:02.641Z,6.22
2022-11-13T16:25:03.403Z,6.21
2022-11-13T16:30:07.574Z,6.13
2022-11-13T16:35:02.808Z,6.22
2022-11-13T16:40:02.650Z,6.41
2022-11-13T16:45:03.318Z,6.41
2022-11-13T16:50:03.227Z,6.49
2022-11-13T16:55:06.975Z,6.46
2022-11-13T17:00:02.834Z,6.37
2022-11-13T17:05:02.536Z,6.54
2022-11-13T17:10:32.157Z,6.31
2022-11-13T17:15:03.292Z,6.2
2022-11-13T17:20:03.015Z,6.07
2022-11-13T17:25:03.096Z,6.05
2022-11-13T17:30:02.866Z,5.95
2022-11-13T17:35:03.497Z,5.92
2022-11-13T17:40:03.216Z,5.82
2022-11-13T17:45:03.051Z,5.79
2022-11-13T17:50:08.243Z,5.73
2022-11-13T17:55:03.742Z,5.68
2022-11-13T18:00:03.413Z,5.71
2022-11-13T18:05:03.078Z,5.67
2022-11-13T18:10:02.782Z,5.68
2022-11-13T18:15:02.523Z,5.67
2022-11-13T18:20:03.578Z,5.59
2022-11-13T18:25:03.134Z,5.49
2022-11-13T18:30:02.863Z,5.49
2022-11-13T18:35:02.560Z,5.35
2022-11-13T18:40:03.321Z,5.28
2022-11-13T18:45:06.654Z,5.16
2022-11-13T18:50:02.801Z,5.13
2022-11-13T18:55:03.508Z,5.15
2022-11-13T19:00:03.413Z,5.2
2022-11-13T19:05:02.740Z,5.26
2022-11-13T19:10:03.433Z,5.43
2022-11-13T19:15:03.316Z,5.43
2022-11-13T19:20:02.971Z,5.2
2022-11-13T19:25:02.525Z,4.93
2022-11-13T19:30:02.764Z,4.94
2022-11-13T19:35:02.486Z,4.98
2022-11-13T19:40:03.134Z,4.99
2022-11-13T19:45:02.886Z,5.1
2022-11-13T19:50:02.577Z,5.01
2022-11-13T19:55:05.031Z,5.03
2022-11-13T20:00:03.401Z,4.97
2022-11-13T20:05:02.746Z,4.99
2022-11-13T20:10:03.382Z,5.1
2022-11-13T20:15:03.116Z,5.14
2022-11-13T20:20:02.802Z,5.09
2022-11-13T20:25:03.350Z,5.02
2022-11-13T20:30:03.466Z,4.98
2022-11-13T20:35:03.103Z,4.89
2022-11-13T20:40:02.924Z,4.7
2022-11-13T20:45:03.558Z,4.57
2022-11-13T20:50:03.296Z,4.53
2022-11-13T20:55:03.986Z,4.4
2022-11-13T21:00:02.765Z,4.25
2022-11-13T21:05:03.381Z,4.18
2022-11-13T21:10:03.049Z,4.08
2022-11-13T21:15:02.763Z,4.03
2022-11-13T21:20:03.539Z,4.01
2022-11-13T21:25:03.295Z,3.81
2022-11-13T21:30:03.354Z,3.78
2022-11-13T21:35:02.650Z,3.78
2022-11-13T21:40:03.023Z,3.83
2022-11-13T21:45:03.028Z,3.8
2022-11-13T21:50:02.655Z,3.81
2022-11-13T21:55:04.537Z,3.82
2022-11-13T22:00:02.961Z,3.81
2022-11-13T22:05:02.543Z,3.8
2022-11-13T22:10:09.040Z,3.8
2022-11-13T22:15:02.703Z,3.7
2022-11-13T22:20:03.848Z,3.81
2022-11-13T22:25:02.991Z,3.78
2022-11-13T22:30:02.615Z,3.87
2022-11-13T22:35:02.766Z,3.82
2022-11-13T22:40:03.401Z,3.69
2022-11-13T22:45:24.885Z,3.66
2022-11-13T22:50:03.267Z,3.76
2022-11-13T22:55:04.444Z,3.66
2022-11-13T23:00:03.319Z,3.68
2022-11-13T23:05:02.705Z,3.52
2022-11-13T23:10:03.407Z,3.59
2022-11-13T23:15:02.730Z,3.67
2022-11-13T23:20:02.993Z,3.68
2022-11-13T23:25:02.671Z,3.77
2022-11-13T23:30:02.848Z,3.85
2022-11-13T23:35:03.370Z,3.92
2022-11-13T23:40:03.284Z,3.91
2022-11-13T23:45:02.694Z,3.89
2022-11-13T23:50:02.299Z,3.9
2022-11-13T23:55:04.397Z,3.77
